sensor_id;sensor_type;location;lat;lon;timestamp;P1;durP1;ratioP1;P2;durP2;ratioP2
30287;SDS011;17103;48.316;11.558;2022-08-03T00:01:49;2.30;;;1.50;;
30287;SDS011;17103;48.316;11.558;2022-08-03T00:04:18;2.08;;;1.30;;
30287;SDS011;17103;48.316;11.558;2022-08-03T00:06:54;2.25;;;1.50;;
30287;SDS011;17103;48.316;11.558;2022-08-03T00:09:20;1.90;;;1.23;;
30287;SDS011;17103;48.316;11.558;2022-08-03T00:11:52;3.67;;;1.70;;
30287;SDS011;17103;48.316;11.558;2022-08-03T00:14:21;2.08;;;1.60;;
30287;SDS011;17103;48.316;11.558;2022-08-03T00:16:47;3.05;;;1.83;;
30287;SDS011;17103;48.316;11.558;2022-08-03T00:19:12;2.13;;;1.50;;
30287;SDS011;17103;48.316;11.558;2022-08-03T00:21:38;4.95;;;1.40;;
30287;SDS011;17103;48.316;11.558;2022-08-03T00:24:06;2.05;;;1.38;;
30287;SDS011;17103;48.316;11.558;2022-08-03T00:26:35;2.58;;;1.30;;
30287;SDS011;17103;48.316;11.558;2022-08-03T00:29:00;1.65;;;1.27;;
30287;SDS011;17103;48.316;11.558;2022-08-03T00:31:26;2.22;;;1.25;;
30287;SDS011;17103;48.316;11.558;2022-08-03T00:33:52;1.90;;;1.00;;
30287;SDS011;17103;48.316;11.558;2022-08-03T00:36:23;2.20;;;1.00;;
30287;SDS011;17103;48.316;11.558;2022-08-03T00:38:48;0.90;;;0.80;;
30287;SDS011;17103;48.316;11.558;2022-08-03T00:41:18;3.05;;;1.05;;
30287;SDS011;17103;48.316;11.558;2022-08-03T00:43:44;1.70;;;1.00;;
30287;SDS011;17103;48.316;11.558;2022-08-03T00:46:13;3.63;;;1.02;;
30287;SDS011;17103;48.316;11.558;2022-08-03T00:48:41;1.90;;;0.98;;
30287;SDS011;17103;48.316;11.558;2022-08-03T00:51:09;1.83;;;0.93;;
30287;SDS011;17103;48.316;11.558;2022-08-03T00:53:35;1.42;;;0.90;;
30287;SDS011;17103;48.316;11.558;2022-08-03T00:56:01;2.08;;;1.20;;
30287;SDS011;17103;48.316;11.558;2022-08-03T00:58:29;3.85;;;1.52;;
30287;SDS011;17103;48.316;11.558;2022-08-03T01:00:55;3.85;;;1.25;;
30287;SDS011;17103;48.316;11.558;2022-08-03T01:03:26;2.92;;;1.08;;
30287;SDS011;17103;48.316;11.558;2022-08-03T01:05:59;1.30;;;0.93;;
30287;SDS011;17103;48.316;11.558;2022-08-03T01:11:47;1.63;;;0.90;;
30287;SDS011;17103;48.316;11.558;2022-08-03T01:14:38;1.48;;;0.88;;
30287;SDS011;17103;48.316;11.558;2022-08-03T01:17:24;1.58;;;0.90;;
30287;SDS011;17103;48.316;11.558;2022-08-03T01:20:02;1.95;;;1.40;;
30287;SDS011;17103;48.316;11.558;2022-08-03T01:25:05;1.33;;;1.10;;
30287;SDS011;17103;48.316;11.558;2022-08-03T01:30:20;1.90;;;1.13;;
30287;SDS011;17103;48.316;11.558;2022-08-03T01:32:55;3.03;;;1.50;;
30287;SDS011;17103;48.316;11.558;2022-08-03T01:35:28;2.88;;;1.10;;
30287;SDS011;17103;48.316;11.558;2022-08-03T01:38:03;2.45;;;1.30;;
30287;SDS011;17103;48.316;11.558;2022-08-03T01:40:33;1.60;;;1.30;;
30287;SDS011;17103;48.316;11.558;2022-08-03T01:43:02;4.10;;;1.52;;
30287;SDS011;17103;48.316;11.558;2022-08-03T01:45:30;1.77;;;1.13;;
30287;SDS011;17103;48.316;11.558;2022-08-03T01:50:27;3.20;;;1.30;;
30287;SDS011;17103;48.316;11.558;2022-08-03T01:52:55;2.63;;;1.27;;
30287;SDS011;17103;48.316;11.558;2022-08-03T01:55:22;3.13;;;1.50;;
30287;SDS011;17103;48.316;11.558;2022-08-03T01:57:52;2.97;;;1.25;;
30287;SDS011;17103;48.316;11.558;2022-08-03T02:00:20;2.58;;;1.17;;
30287;SDS011;17103;48.316;11.558;2022-08-03T02:02:48;2.97;;;1.30;;
30287;SDS011;17103;48.316;11.558;2022-08-03T02:05:15;3.35;;;1.10;;
30287;SDS011;17103;48.316;11.558;2022-08-03T02:07:43;3.33;;;1.10;;
30287;SDS011;17103;48.316;11.558;2022-08-03T02:10:14;2.95;;;1.58;;
30287;SDS011;17103;48.316;11.558;2022-08-03T02:12:45;5.00;;;1.33;;
30287;SDS011;17103;48.316;11.558;2022-08-03T02:15:16;2.08;;;1.10;;
30287;SDS011;17103;48.316;11.558;2022-08-03T02:17:46;1.73;;;1.05;;
30287;SDS011;17103;48.316;11.558;2022-08-03T02:20:13;1.30;;;1.00;;
30287;SDS011;17103;48.316;11.558;2022-08-03T02:22:40;3.40;;;1.00;;
30287;SDS011;17103;48.316;11.558;2022-08-03T02:25:08;2.28;;;1.10;;
30287;SDS011;17103;48.316;11.558;2022-08-03T02:30:07;3.10;;;0.90;;
30287;SDS011;17103;48.316;11.558;2022-08-03T02:32:35;1.50;;;0.93;;
30287;SDS011;17103;48.316;11.558;2022-08-03T02:35:05;1.92;;;0.88;;
30287;SDS011;17103;48.316;11.558;2022-08-03T02:37:35;3.13;;;1.20;;
30287;SDS011;17103;48.316;11.558;2022-08-03T02:40:07;2.10;;;1.02;;
30287;SDS011;17103;48.316;11.558;2022-08-03T02:42:34;3.70;;;0.93;;
30287;SDS011;17103;48.316;11.558;2022-08-03T02:45:04;2.53;;;1.20;;
30287;SDS011;17103;48.316;11.558;2022-08-03T02:47:31;0.82;;;0.60;;
30287;SDS011;17103;48.316;11.558;2022-08-03T02:50:01;1.13;;;0.80;;
30287;SDS011;17103;48.316;11.558;2022-08-03T02:52:28;2.55;;;1.00;;
30287;SDS011;17103;48.316;11.558;2022-08-03T02:54:56;1.55;;;0.90;;
30287;SDS011;17103;48.316;11.558;2022-08-03T02:57:25;3.35;;;0.95;;
30287;SDS011;17103;48.316;11.558;2022-08-03T02:59:54;1.33;;;0.93;;
30287;SDS011;17103;48.316;11.558;2022-08-03T03:02:20;1.92;;;0.95;;
30287;SDS011;17103;48.316;11.558;2022-08-03T03:04:48;1.67;;;0.85;;
30287;SDS011;17103;48.316;11.558;2022-08-03T03:07:15;1.42;;;1.10;;
30287;SDS011;17103;48.316;11.558;2022-08-03T03:09:47;2.35;;;0.98;;
30287;SDS011;17103;48.316;11.558;2022-08-03T03:12:14;5.47;;;1.20;;
30287;SDS011;17103;48.316;11.558;2022-08-03T03:14:40;1.23;;;1.02;;
30287;SDS011;17103;48.316;11.558;2022-08-03T03:17:06;1.40;;;1.15;;
30287;SDS011;17103;48.316;11.558;2022-08-03T03:19:33;1.75;;;1.08;;
30287;SDS011;17103;48.316;11.558;2022-08-03T03:22:01;1.58;;;0.95;;
30287;SDS011;17103;48.316;11.558;2022-08-03T03:24:28;4.05;;;1.10;;
30287;SDS011;17103;48.316;11.558;2022-08-03T03:26:55;1.60;;;1.10;;
30287;SDS011;17103;48.316;11.558;2022-08-03T03:29:22;1.30;;;0.88;;
30287;SDS011;17103;48.316;11.558;2022-08-03T03:31:48;1.83;;;0.80;;
30287;SDS011;17103;48.316;11.558;2022-08-03T03:34:13;3.33;;;1.10;;
30287;SDS011;17103;48.316;11.558;2022-08-03T03:36:39;1.08;;;0.82;;
30287;SDS011;17103;48.316;11.558;2022-08-03T03:39:09;3.40;;;0.95;;
30287;SDS011;17103;48.316;11.558;2022-08-03T03:41:38;3.05;;;0.90;;
30287;SDS011;17103;48.316;11.558;2022-08-03T03:44:05;1.25;;;0.95;;
30287;SDS011;17103;48.316;11.558;2022-08-03T03:46:32;1.58;;;1.05;;
30287;SDS011;17103;48.316;11.558;2022-08-03T03:48:57;1.15;;;0.93;;
30287;SDS011;17103;48.316;11.558;2022-08-03T03:51:23;1.73;;;1.13;;
30287;SDS011;17103;48.316;11.558;2022-08-03T03:53:59;1.88;;;0.93;;
30287;SDS011;17103;48.316;11.558;2022-08-03T03:56:27;2.75;;;1.23;;
30287;SDS011;17103;48.316;11.558;2022-08-03T03:58:53;2.17;;;1.08;;
30287;SDS011;17103;48.316;11.558;2022-08-03T04:01:19;1.80;;;0.88;;
30287;SDS011;17103;48.316;11.558;2022-08-03T04:03:45;1.83;;;1.00;;
30287;SDS011;17103;48.316;11.558;2022-08-03T04:06:10;2.95;;;1.17;;
30287;SDS011;17103;48.316;11.558;2022-08-03T04:08:55;2.25;;;0.90;;
30287;SDS011;17103;48.316;11.558;2022-08-03T04:11:45;2.35;;;1.23;;
30287;SDS011;17103;48.316;11.558;2022-08-03T04:14:25;2.17;;;1.02;;
30287;SDS011;17103;48.316;11.558;2022-08-03T04:16:54;1.90;;;1.30;;
30287;SDS011;17103;48.316;11.558;2022-08-03T04:21:57;2.47;;;1.48;;
30287;SDS011;17103;48.316;11.558;2022-08-03T04:24:26;1.90;;;1.35;;
30287;SDS011;17103;48.316;11.558;2022-08-03T04:27:04;2.45;;;1.23;;
30287;SDS011;17103;48.316;11.558;2022-08-03T04:29:32;1.60;;;1.20;;
30287;SDS011;17103;48.316;11.558;2022-08-03T04:32:02;2.78;;;1.10;;
30287;SDS011;17103;48.316;11.558;2022-08-03T04:34:31;1.52;;;1.20;;
30287;SDS011;17103;48.316;11.558;2022-08-03T04:36:59;2.17;;;1.08;;
30287;SDS011;17103;48.316;11.558;2022-08-03T04:39:28;1.30;;;1.20;;
30287;SDS011;17103;48.316;11.558;2022-08-03T04:42:12;1.45;;;1.02;;
30287;SDS011;17103;48.316;11.558;2022-08-03T04:44:39;1.63;;;1.00;;
30287;SDS011;17103;48.316;11.558;2022-08-03T04:49:36;2.03;;;1.10;;
30287;SDS011;17103;48.316;11.558;2022-08-03T04:52:03;2.10;;;1.20;;
30287;SDS011;17103;48.316;11.558;2022-08-03T04:54:37;3.58;;;1.30;;
30287;SDS011;17103;48.316;11.558;2022-08-03T04:57:09;2.90;;;1.15;;
30287;SDS011;17103;48.316;11.558;2022-08-03T04:59:36;1.77;;;1.35;;
30287;SDS011;17103;48.316;11.558;2022-08-03T05:02:02;1.75;;;1.30;;
30287;SDS011;17103;48.316;11.558;2022-08-03T05:04:29;3.33;;;1.00;;
30287;SDS011;17103;48.316;11.558;2022-08-03T05:06:54;2.25;;;1.05;;
30287;SDS011;17103;48.316;11.558;2022-08-03T05:09:20;1.90;;;1.00;;
30287;SDS011;17103;48.316;11.558;2022-08-03T05:11:46;2.03;;;1.10;;
30287;SDS011;17103;48.316;11.558;2022-08-03T05:14:12;2.63;;;1.20;;
30287;SDS011;17103;48.316;11.558;2022-08-03T05:16:39;2.50;;;1.10;;
30287;SDS011;17103;48.316;11.558;2022-08-03T05:19:04;2.22;;;0.85;;
30287;SDS011;17103;48.316;11.558;2022-08-03T05:21:30;1.35;;;1.00;;
30287;SDS011;17103;48.316;11.558;2022-08-03T05:23:56;3.00;;;1.27;;
30287;SDS011;17103;48.316;11.558;2022-08-03T05:26:22;3.28;;;1.15;;
30287;SDS011;17103;48.316;11.558;2022-08-03T05:28:48;2.90;;;1.35;;
30287;SDS011;17103;48.316;11.558;2022-08-03T05:31:14;1.23;;;0.95;;
30287;SDS011;17103;48.316;11.558;2022-08-03T05:33:41;1.98;;;1.30;;
30287;SDS011;17103;48.316;11.558;2022-08-03T05:36:10;1.75;;;1.08;;
30287;SDS011;17103;48.316;11.558;2022-08-03T05:38:36;2.53;;;1.10;;
30287;SDS011;17103;48.316;11.558;2022-08-03T05:41:03;2.55;;;1.08;;
30287;SDS011;17103;48.316;11.558;2022-08-03T05:43:29;2.38;;;1.20;;
30287;SDS011;17103;48.316;11.558;2022-08-03T05:45:56;1.88;;;1.33;;
30287;SDS011;17103;48.316;11.558;2022-08-03T05:48:22;1.75;;;1.00;;
30287;SDS011;17103;48.316;11.558;2022-08-03T05:50:48;2.58;;;1.30;;
30287;SDS011;17103;48.316;11.558;2022-08-03T05:53:14;2.50;;;1.33;;
30287;SDS011;17103;48.316;11.558;2022-08-03T05:55:42;1.90;;;1.17;;
30287;SDS011;17103;48.316;11.558;2022-08-03T05:58:10;2.97;;;1.05;;
30287;SDS011;17103;48.316;11.558;2022-08-03T06:00:38;7.07;;;1.20;;
30287;SDS011;17103;48.316;11.558;2022-08-03T06:03:06;2.65;;;1.35;;
30287;SDS011;17103;48.316;11.558;2022-08-03T06:05:32;1.67;;;1.02;;
30287;SDS011;17103;48.316;11.558;2022-08-03T06:08:00;2.88;;;1.08;;
30287;SDS011;17103;48.316;11.558;2022-08-03T06:10:26;4.30;;;1.20;;
30287;SDS011;17103;48.316;11.558;2022-08-03T06:12:52;2.00;;;0.85;;
30287;SDS011;17103;48.316;11.558;2022-08-03T06:15:19;5.15;;;1.70;;
30287;SDS011;17103;48.316;11.558;2022-08-03T06:17:45;4.72;;;1.20;;
30287;SDS011;17103;48.316;11.558;2022-08-03T06:20:12;1.27;;;1.00;;
30287;SDS011;17103;48.316;11.558;2022-08-03T06:22:37;2.50;;;0.90;;
30287;SDS011;17103;48.316;11.558;2022-08-03T06:25:09;3.78;;;1.40;;
30287;SDS011;17103;48.316;11.558;2022-08-03T06:27:35;4.72;;;1.50;;
30287;SDS011;17103;48.316;11.558;2022-08-03T06:30:05;2.42;;;1.50;;
30287;SDS011;17103;48.316;11.558;2022-08-03T06:32:36;2.55;;;1.33;;
30287;SDS011;17103;48.316;11.558;2022-08-03T06:35:04;2.95;;;1.75;;
30287;SDS011;17103;48.316;11.558;2022-08-03T06:37:49;6.05;;;1.73;;
30287;SDS011;17103;48.316;11.558;2022-08-03T06:40:16;2.75;;;1.80;;
30287;SDS011;17103;48.316;11.558;2022-08-03T06:42:45;2.33;;;1.52;;
30287;SDS011;17103;48.316;11.558;2022-08-03T06:45:11;2.92;;;1.50;;
30287;SDS011;17103;48.316;11.558;2022-08-03T06:47:37;2.95;;;1.38;;
30287;SDS011;17103;48.316;11.558;2022-08-03T06:50:07;1.73;;;1.20;;
30287;SDS011;17103;48.316;11.558;2022-08-03T06:52:33;3.03;;;1.50;;
30287;SDS011;17103;48.316;11.558;2022-08-03T06:54:59;2.85;;;1.42;;
30287;SDS011;17103;48.316;11.558;2022-08-03T06:57:25;1.85;;;1.17;;
30287;SDS011;17103;48.316;11.558;2022-08-03T06:59:51;2.88;;;1.17;;
30287;SDS011;17103;48.316;11.558;2022-08-03T07:02:17;1.80;;;1.45;;
30287;SDS011;17103;48.316;11.558;2022-08-03T07:04:44;2.97;;;1.40;;
30287;SDS011;17103;48.316;11.558;2022-08-03T07:07:10;2.75;;;1.30;;
30287;SDS011;17103;48.316;11.558;2022-08-03T07:09:36;3.17;;;1.75;;
30287;SDS011;17103;48.316;11.558;2022-08-03T07:12:02;1.67;;;1.40;;
30287;SDS011;17103;48.316;11.558;2022-08-03T07:14:29;1.60;;;1.05;;
30287;SDS011;17103;48.316;11.558;2022-08-03T07:16:58;2.90;;;1.25;;
30287;SDS011;17103;48.316;11.558;2022-08-03T07:19:23;1.83;;;1.25;;
30287;SDS011;17103;48.316;11.558;2022-08-03T07:21:51;3.33;;;1.05;;
30287;SDS011;17103;48.316;11.558;2022-08-03T07:24:16;3.83;;;1.30;;
30287;SDS011;17103;48.316;11.558;2022-08-03T07:26:56;3.08;;;1.50;;
30287;SDS011;17103;48.316;11.558;2022-08-03T07:29:33;2.00;;;1.00;;
30287;SDS011;17103;48.316;11.558;2022-08-03T07:32:02;8.88;;;1.50;;
30287;SDS011;17103;48.316;11.558;2022-08-03T07:34:29;5.18;;;1.95;;
30287;SDS011;17103;48.316;11.558;2022-08-03T07:36:55;9.60;;;2.80;;
30287;SDS011;17103;48.316;11.558;2022-08-03T07:39:25;5.03;;;1.77;;
30287;SDS011;17103;48.316;11.558;2022-08-03T07:41:51;3.70;;;1.42;;
30287;SDS011;17103;48.316;11.558;2022-08-03T07:44:21;2.90;;;1.17;;
30287;SDS011;17103;48.316;11.558;2022-08-03T07:46:56;1.35;;;1.10;;
30287;SDS011;17103;48.316;11.558;2022-08-03T07:49:28;2.28;;;1.08;;
30287;SDS011;17103;48.316;11.558;2022-08-03T07:52:01;5.53;;;1.67;;
30287;SDS011;17103;48.316;11.558;2022-08-03T07:54:46;4.70;;;1.38;;
30287;SDS011;17103;48.316;11.558;2022-08-03T07:57:23;8.43;;;1.92;;
30287;SDS011;17103;48.316;11.558;2022-08-03T07:59:54;4.43;;;1.30;;
30287;SDS011;17103;48.316;11.558;2022-08-03T08:02:19;7.45;;;1.00;;
30287;SDS011;17103;48.316;11.558;2022-08-03T08:04:45;4.38;;;0.85;;
30287;SDS011;17103;48.316;11.558;2022-08-03T08:07:18;2.53;;;1.13;;
30287;SDS011;17103;48.316;11.558;2022-08-03T08:09:43;1.80;;;1.08;;
30287;SDS011;17103;48.316;11.558;2022-08-03T08:12:11;3.00;;;1.20;;
30287;SDS011;17103;48.316;11.558;2022-08-03T08:14:39;1.73;;;0.82;;
30287;SDS011;17103;48.316;11.558;2022-08-03T08:17:12;3.38;;;0.70;;
30287;SDS011;17103;48.316;11.558;2022-08-03T08:22:07;5.90;;;1.02;;
30287;SDS011;17103;48.316;11.558;2022-08-03T08:24:39;3.40;;;0.75;;
30287;SDS011;17103;48.316;11.558;2022-08-03T08:30:25;3.30;;;0.70;;
30287;SDS011;17103;48.316;11.558;2022-08-03T08:32:56;2.30;;;0.77;;
30287;SDS011;17103;48.316;11.558;2022-08-03T08:35:24;2.00;;;0.80;;
30287;SDS011;17103;48.316;11.558;2022-08-03T08:46:56;10.75;;;1.65;;
30287;SDS011;17103;48.316;11.558;2022-08-03T08:50:07;4.80;;;1.00;;
30287;SDS011;17103;48.316;11.558;2022-08-03T08:53:27;3.72;;;0.90;;
30287;SDS011;17103;48.316;11.558;2022-08-03T08:55:57;8.43;;;1.45;;
30287;SDS011;17103;48.316;11.558;2022-08-03T08:58:46;5.00;;;0.90;;
30287;SDS011;17103;48.316;11.558;2022-08-03T09:01:55;4.03;;;0.60;;
30287;SDS011;17103;48.316;11.558;2022-08-03T09:04:32;2.00;;;0.80;;
30287;SDS011;17103;48.316;11.558;2022-08-03T09:10:46;1.88;;;0.63;;
30287;SDS011;17103;48.316;11.558;2022-08-03T09:13:52;3.33;;;0.70;;
30287;SDS011;17103;48.316;11.558;2022-08-03T09:16:28;1.25;;;0.70;;
30287;SDS011;17103;48.316;11.558;2022-08-03T09:19:13;0.55;;;0.50;;
30287;SDS011;17103;48.316;11.558;2022-08-03T09:24:58;14.50;;;2.75;;
30287;SDS011;17103;48.316;11.558;2022-08-03T09:27:28;5.03;;;1.27;;
30287;SDS011;17103;48.316;11.558;2022-08-03T09:30:05;3.22;;;0.70;;
30287;SDS011;17103;48.316;11.558;2022-08-03T09:32:46;0.95;;;0.50;;
30287;SDS011;17103;48.316;11.558;2022-08-03T09:35:14;4.00;;;0.70;;
30287;SDS011;17103;48.316;11.558;2022-08-03T09:37:44;6.00;;;1.92;;
30287;SDS011;17103;48.316;11.558;2022-08-03T09:40:12;9.57;;;1.33;;
30287;SDS011;17103;48.316;11.558;2022-08-03T09:43:00;1.70;;;0.82;;
30287;SDS011;17103;48.316;11.558;2022-08-03T09:45:26;1.60;;;0.80;;
30287;SDS011;17103;48.316;11.558;2022-08-03T09:47:53;7.18;;;1.35;;
30287;SDS011;17103;48.316;11.558;2022-08-03T09:50:20;6.50;;;1.45;;
30287;SDS011;17103;48.316;11.558;2022-08-03T09:52:46;1.42;;;0.73;;
30287;SDS011;17103;48.316;11.558;2022-08-03T09:55:15;3.70;;;0.73;;
30287;SDS011;17103;48.316;11.558;2022-08-03T09:57:41;0.75;;;0.43;;
30287;SDS011;17103;48.316;11.558;2022-08-03T10:00:19;1.17;;;0.50;;
30287;SDS011;17103;48.316;11.558;2022-08-03T10:02:47;1.63;;;0.63;;
30287;SDS011;17103;48.316;11.558;2022-08-03T10:05:18;5.28;;;1.13;;
30287;SDS011;17103;48.316;11.558;2022-08-03T10:08:09;15.93;;;2.78;;
30287;SDS011;17103;48.316;11.558;2022-08-03T10:10:44;3.40;;;1.35;;
30287;SDS011;17103;48.316;11.558;2022-08-03T10:13:14;0.75;;;0.57;;
30287;SDS011;17103;48.316;11.558;2022-08-03T10:15:44;0.85;;;0.70;;
30287;SDS011;17103;48.316;11.558;2022-08-03T10:18:14;1.15;;;0.52;;
30287;SDS011;17103;48.316;11.558;2022-08-03T10:20:44;1.48;;;0.45;;
30287;SDS011;17103;48.316;11.558;2022-08-03T10:23:15;1.25;;;0.50;;
30287;SDS011;17103;48.316;11.558;2022-08-03T10:25:41;1.77;;;0.60;;
30287;SDS011;17103;48.316;11.558;2022-08-03T10:28:13;2.50;;;0.60;;
30287;SDS011;17103;48.316;11.558;2022-08-03T10:30:43;0.55;;;0.43;;
30287;SDS011;17103;48.316;11.558;2022-08-03T10:33:19;1.63;;;0.30;;
30287;SDS011;17103;48.316;11.558;2022-08-03T10:35:52;1.00;;;0.50;;
30287;SDS011;17103;48.316;11.558;2022-08-03T10:38:24;1.10;;;0.82;;
30287;SDS011;17103;48.316;11.558;2022-08-03T10:40:54;2.28;;;0.50;;
30287;SDS011;17103;48.316;11.558;2022-08-03T10:43:21;7.57;;;0.90;;
30287;SDS011;17103;48.316;11.558;2022-08-03T10:45:53;5.55;;;0.98;;
30287;SDS011;17103;48.316;11.558;2022-08-03T10:48:20;3.03;;;0.80;;
30287;SDS011;17103;48.316;11.558;2022-08-03T10:50:47;3.38;;;0.68;;
30287;SDS011;17103;48.316;11.558;2022-08-03T10:53:32;0.75;;;0.47;;
30287;SDS011;17103;48.316;11.558;2022-08-03T10:59:59;0.55;;;0.38;;
30287;SDS011;17103;48.316;11.558;2022-08-03T11:02:09;0.80;;;0.40;;
30287;SDS011;17103;48.316;11.558;2022-08-03T11:04:36;1.00;;;0.43;;
30287;SDS011;17103;48.316;11.558;2022-08-03T11:09:43;1.75;;;0.40;;
30287;SDS011;17103;48.316;11.558;2022-08-03T11:12:24;1.50;;;0.50;;
30287;SDS011;17103;48.316;11.558;2022-08-03T11:14:55;1.83;;;0.85;;
30287;SDS011;17103;48.316;11.558;2022-08-03T11:17:22;4.63;;;0.70;;
30287;SDS011;17103;48.316;11.558;2022-08-03T11:19:51;2.97;;;0.85;;
30287;SDS011;17103;48.316;11.558;2022-08-03T11:22:18;1.80;;;0.75;;
30287;SDS011;17103;48.316;11.558;2022-08-03T11:30:10;7.47;;;1.10;;
30287;SDS011;17103;48.316;11.558;2022-08-03T11:33:32;3.33;;;0.68;;
30287;SDS011;17103;48.316;11.558;2022-08-03T11:36:05;8.40;;;1.35;;
30287;SDS011;17103;48.316;11.558;2022-08-03T11:38:32;1.65;;;0.60;;
30287;SDS011;17103;48.316;11.558;2022-08-03T11:40:57;1.08;;;0.63;;
30287;SDS011;17103;48.316;11.558;2022-08-03T11:46:02;0.90;;;0.45;;
30287;SDS011;17103;48.316;11.558;2022-08-03T11:48:35;4.05;;;1.05;;
30287;SDS011;17103;48.316;11.558;2022-08-03T11:51:18;6.53;;;1.45;;
30287;SDS011;17103;48.316;11.558;2022-08-03T11:56:24;0.77;;;0.50;;
30287;SDS011;17103;48.316;11.558;2022-08-03T11:58:51;1.63;;;0.47;;
30287;SDS011;17103;48.316;11.558;2022-08-03T12:01:20;4.50;;;0.60;;
30287;SDS011;17103;48.316;11.558;2022-08-03T12:03:47;0.80;;;0.50;;
30287;SDS011;17103;48.316;11.558;2022-08-03T12:06:14;4.13;;;0.60;;
30287;SDS011;17103;48.316;11.558;2022-08-03T12:08:40;2.80;;;0.65;;
30287;SDS011;17103;48.316;11.558;2022-08-03T12:11:08;2.25;;;0.40;;
30287;SDS011;17103;48.316;11.558;2022-08-03T12:13:40;0.75;;;0.50;;
30287;SDS011;17103;48.316;11.558;2022-08-03T12:16:07;0.63;;;0.50;;
30287;SDS011;17103;48.316;11.558;2022-08-03T12:18:33;0.75;;;0.38;;
30287;SDS011;17103;48.316;11.558;2022-08-03T12:21:06;3.53;;;0.70;;
30287;SDS011;17103;48.316;11.558;2022-08-03T12:23:34;1.40;;;0.77;;
30287;SDS011;17103;48.316;11.558;2022-08-03T12:26:04;0.85;;;0.50;;
30287;SDS011;17103;48.316;11.558;2022-08-03T12:28:32;7.93;;;0.85;;
30287;SDS011;17103;48.316;11.558;2022-08-03T12:31:02;2.28;;;1.00;;
30287;SDS011;17103;48.316;11.558;2022-08-03T12:33:31;3.75;;;0.80;;
30287;SDS011;17103;48.316;11.558;2022-08-03T12:36:17;3.28;;;0.50;;
30287;SDS011;17103;48.316;11.558;2022-08-03T12:38:43;0.90;;;0.40;;
30287;SDS011;17103;48.316;11.558;2022-08-03T12:41:30;1.10;;;0.60;;
30287;SDS011;17103;48.316;11.558;2022-08-03T12:44:04;2.00;;;0.50;;
30287;SDS011;17103;48.316;11.558;2022-08-03T12:46:32;5.47;;;0.85;;
30287;SDS011;17103;48.316;11.558;2022-08-03T12:49:10;2.65;;;0.77;;
30287;SDS011;17103;48.316;11.558;2022-08-03T12:54:09;1.77;;;0.88;;
30287;SDS011;17103;48.316;11.558;2022-08-03T12:59:26;2.10;;;0.82;;
30287;SDS011;17103;48.316;11.558;2022-08-03T13:01:54;1.00;;;0.40;;
30287;SDS011;17103;48.316;11.558;2022-08-03T13:06:56;3.05;;;0.70;;
30287;SDS011;17103;48.316;11.558;2022-08-03T13:09:23;0.95;;;0.50;;
30287;SDS011;17103;48.316;11.558;2022-08-03T13:12:12;1.55;;;0.40;;
30287;SDS011;17103;48.316;11.558;2022-08-03T13:14:43;0.75;;;0.50;;
30287;SDS011;17103;48.316;11.558;2022-08-03T13:17:10;0.50;;;0.40;;
30287;SDS011;17103;48.316;11.558;2022-08-03T13:19:37;0.93;;;0.43;;
30287;SDS011;17103;48.316;11.558;2022-08-03T13:22:10;3.17;;;0.75;;
30287;SDS011;17103;48.316;11.558;2022-08-03T13:24:37;4.00;;;0.68;;
30287;SDS011;17103;48.316;11.558;2022-08-03T13:27:04;2.25;;;0.40;;
30287;SDS011;17103;48.316;11.558;2022-08-03T13:29:31;0.50;;;0.40;;
30287;SDS011;17103;48.316;11.558;2022-08-03T13:31:57;0.88;;;0.50;;
30287;SDS011;17103;48.316;11.558;2022-08-03T13:34:23;1.15;;;0.52;;
30287;SDS011;17103;48.316;11.558;2022-08-03T13:36:48;3.38;;;0.55;;
30287;SDS011;17103;48.316;11.558;2022-08-03T13:39:14;2.42;;;0.57;;
30287;SDS011;17103;48.316;11.558;2022-08-03T13:41:40;1.05;;;0.57;;
30287;SDS011;17103;48.316;11.558;2022-08-03T13:44:06;1.70;;;0.40;;
30287;SDS011;17103;48.316;11.558;2022-08-03T13:46:31;1.70;;;0.55;;
30287;SDS011;17103;48.316;11.558;2022-08-03T13:48:57;4.18;;;1.08;;
30287;SDS011;17103;48.316;11.558;2022-08-03T13:51:22;0.88;;;0.40;;
30287;SDS011;17103;48.316;11.558;2022-08-03T13:53:49;0.90;;;0.63;;
30287;SDS011;17103;48.316;11.558;2022-08-03T13:56:16;1.33;;;0.65;;
30287;SDS011;17103;48.316;11.558;2022-08-03T13:58:45;0.60;;;0.50;;
30287;SDS011;17103;48.316;11.558;2022-08-03T14:01:23;3.60;;;0.95;;
30287;SDS011;17103;48.316;11.558;2022-08-03T14:03:54;3.72;;;0.60;;
30287;SDS011;17103;48.316;11.558;2022-08-03T14:06:21;1.48;;;0.63;;
30287;SDS011;17103;48.316;11.558;2022-08-03T14:08:48;2.83;;;0.47;;
30287;SDS011;17103;48.316;11.558;2022-08-03T14:11:15;1.52;;;0.52;;
30287;SDS011;17103;48.316;11.558;2022-08-03T14:13:42;0.82;;;0.50;;
30287;SDS011;17103;48.316;11.558;2022-08-03T14:16:18;0.52;;;0.40;;
30287;SDS011;17103;48.316;11.558;2022-08-03T14:18:44;2.47;;;0.50;;
30287;SDS011;17103;48.316;11.558;2022-08-03T14:21:10;1.48;;;0.50;;
30287;SDS011;17103;48.316;11.558;2022-08-03T14:23:37;0.70;;;0.50;;
30287;SDS011;17103;48.316;11.558;2022-08-03T14:26:06;0.68;;;0.30;;
30287;SDS011;17103;48.316;11.558;2022-08-03T14:28:33;4.53;;;1.48;;
30287;SDS011;17103;48.316;11.558;2022-08-03T14:31:00;4.45;;;0.80;;
30287;SDS011;17103;48.316;11.558;2022-08-03T14:33:30;0.40;;;0.32;;
30287;SDS011;17103;48.316;11.558;2022-08-03T14:35:55;2.75;;;0.80;;
30287;SDS011;17103;48.316;11.558;2022-08-03T14:38:21;4.60;;;0.85;;
30287;SDS011;17103;48.316;11.558;2022-08-03T14:40:50;1.45;;;0.43;;
30287;SDS011;17103;48.316;11.558;2022-08-03T14:43:19;1.00;;;0.50;;
30287;SDS011;17103;48.316;11.558;2022-08-03T14:45:48;1.00;;;0.40;;
30287;SDS011;17103;48.316;11.558;2022-08-03T14:48:21;0.93;;;0.50;;
30287;SDS011;17103;48.316;11.558;2022-08-03T14:50:50;0.98;;;0.60;;
30287;SDS011;17103;48.316;11.558;2022-08-03T14:53:20;2.67;;;0.60;;
30287;SDS011;17103;48.316;11.558;2022-08-03T14:55:47;1.08;;;0.50;;
30287;SDS011;17103;48.316;11.558;2022-08-03T14:58:13;0.70;;;0.40;;
30287;SDS011;17103;48.316;11.558;2022-08-03T15:00:39;3.00;;;0.63;;
30287;SDS011;17103;48.316;11.558;2022-08-03T15:03:05;1.83;;;0.38;;
30287;SDS011;17103;48.316;11.558;2022-08-03T15:05:31;0.40;;;0.40;;
30287;SDS011;17103;48.316;11.558;2022-08-03T15:10:36;2.35;;;0.40;;
30287;SDS011;17103;48.316;11.558;2022-08-03T15:13:16;0.45;;;0.35;;
30287;SDS011;17103;48.316;11.558;2022-08-03T15:15:43;1.48;;;0.73;;
30287;SDS011;17103;48.316;11.558;2022-08-03T15:18:09;0.60;;;0.30;;
30287;SDS011;17103;48.316;11.558;2022-08-03T15:20:42;1.10;;;0.80;;
30287;SDS011;17103;48.316;11.558;2022-08-03T15:25:42;1.10;;;0.55;;
30287;SDS011;17103;48.316;11.558;2022-08-03T15:28:15;1.08;;;0.35;;
30287;SDS011;17103;48.316;11.558;2022-08-03T15:30:50;0.88;;;0.40;;
30287;SDS011;17103;48.316;11.558;2022-08-03T15:33:32;2.10;;;0.70;;
30287;SDS011;17103;48.316;11.558;2022-08-03T15:35:58;3.13;;;0.50;;
30287;SDS011;17103;48.316;11.558;2022-08-03T15:38:24;0.68;;;0.50;;
30287;SDS011;17103;48.316;11.558;2022-08-03T15:44:02;0.43;;;0.43;;
30287;SDS011;17103;48.316;11.558;2022-08-03T15:46:33;1.17;;;0.55;;
30287;SDS011;17103;48.316;11.558;2022-08-03T15:48:59;1.95;;;0.40;;
30287;SDS011;17103;48.316;11.558;2022-08-03T15:51:25;2.03;;;0.45;;
30287;SDS011;17103;48.316;11.558;2022-08-03T15:53:51;1.40;;;0.40;;
30287;SDS011;17103;48.316;11.558;2022-08-03T15:56:17;1.83;;;0.47;;
30287;SDS011;17103;48.316;11.558;2022-08-03T15:59:09;0.40;;;0.40;;
30287;SDS011;17103;48.316;11.558;2022-08-03T16:01:43;0.85;;;0.70;;
30287;SDS011;17103;48.316;11.558;2022-08-03T16:04:16;0.50;;;0.35;;